sensor_id;sensor_type;location;lat;lon;timestamp;P1;durP1;ratioP1;P2;durP2;ratioP2
46721;SDS011;32455;43.430;23.136;2022-10-22T00:01:09;6.47;;;4.50;;
46721;SDS011;32455;43.430;23.136;2022-10-22T00:03:55;6.53;;;4.80;;
46721;SDS011;32455;43.430;23.136;2022-10-22T00:06:40;5.88;;;4.78;;
46721;SDS011;32455;43.430;23.136;2022-10-22T00:09:28;6.53;;;4.47;;
46721;SDS011;32455;43.430;23.136;2022-10-22T00:12:14;6.88;;;4.38;;
46721;SDS011;32455;43.430;23.136;2022-10-22T00:15:00;6.45;;;4.55;;
46721;SDS011;32455;43.430;23.136;2022-10-22T00:17:45;7.63;;;5.20;;
46721;SDS011;32455;43.430;23.136;2022-10-22T00:20:33;5.53;;;4.25;;
46721;SDS011;32455;43.430;23.136;2022-10-22T00:23:18;9.13;;;4.57;;
46721;SDS011;32455;43.430;23.136;2022-10-22T00:26:04;9.35;;;4.32;;
46721;SDS011;32455;43.430;23.136;2022-10-22T00:28:50;6.28;;;4.55;;
46721;SDS011;32455;43.430;23.136;2022-10-22T00:31:35;6.82;;;4.85;;
46721;SDS011;32455;43.430;23.136;2022-10-22T00:34:20;6.72;;;4.68;;
46721;SDS011;32455;43.430;23.136;2022-10-22T00:37:06;5.57;;;4.13;;
46721;SDS011;32455;43.430;23.136;2022-10-22T00:39:52;6.63;;;4.95;;
46721;SDS011;32455;43.430;23.136;2022-10-22T00:42:38;5.28;;;4.18;;
46721;SDS011;32455;43.430;23.136;2022-10-22T00:45:23;5.18;;;4.43;;
46721;SDS011;32455;43.430;23.136;2022-10-22T00:48:27;7.22;;;5.13;;
46721;SDS011;32455;43.430;23.136;2022-10-22T00:51:15;6.38;;;4.28;;
46721;SDS011;32455;43.430;23.136;2022-10-22T00:54:02;6.07;;;4.60;;
46721;SDS011;32455;43.430;23.136;2022-10-22T00:56:50;7.47;;;4.53;;
46721;SDS011;32455;43.430;23.136;2022-10-22T00:59:36;5.85;;;4.50;;
46721;SDS011;32455;43.430;23.136;2022-10-22T01:02:22;6.45;;;4.43;;
46721;SDS011;32455;43.430;23.136;2022-10-22T01:05:08;5.68;;;4.13;;
46721;SDS011;32455;43.430;23.136;2022-10-22T01:07:54;4.55;;;3.78;;
46721;SDS011;32455;43.430;23.136;2022-10-22T01:11:26;6.28;;;4.82;;
46721;SDS011;32455;43.430;23.136;2022-10-22T01:13:57;5.60;;;4.07;;
46721;SDS011;32455;43.430;23.136;2022-10-22T01:17:14;5.63;;;4.20;;
46721;SDS011;32455;43.430;23.136;2022-10-22T01:26:05;7.07;;;4.72;;
46721;SDS011;32455;43.430;23.136;2022-10-22T01:32:11;5.72;;;4.78;;
46721;SDS011;32455;43.430;23.136;2022-10-22T01:35:01;10.38;;;6.75;;
46721;SDS011;32455;43.430;23.136;2022-10-22T01:37:53;16.20;;;10.02;;
46721;SDS011;32455;43.430;23.136;2022-10-22T01:40:41;14.43;;;8.70;;
46721;SDS011;32455;43.430;23.136;2022-10-22T01:43:27;11.20;;;7.90;;
46721;SDS011;32455;43.430;23.136;2022-10-22T01:46:13;7.47;;;5.03;;
46721;SDS011;32455;43.430;23.136;2022-10-22T01:49:16;6.82;;;5.13;;
46721;SDS011;32455;43.430;23.136;2022-10-22T01:52:56;9.38;;;6.03;;
46721;SDS011;32455;43.430;23.136;2022-10-22T02:01:40;6.03;;;4.63;;
46721;SDS011;32455;43.430;23.136;2022-10-22T02:07:40;7.30;;;4.85;;
46721;SDS011;32455;43.430;23.136;2022-10-22T02:10:29;6.55;;;4.90;;
46721;SDS011;32455;43.430;23.136;2022-10-22T02:13:20;8.30;;;4.97;;
46721;SDS011;32455;43.430;23.136;2022-10-22T02:16:10;5.43;;;4.60;;
46721;SDS011;32455;43.430;23.136;2022-10-22T02:19:01;9.15;;;4.93;;
46721;SDS011;32455;43.430;23.136;2022-10-22T02:21:52;6.28;;;4.65;;
46721;SDS011;32455;43.430;23.136;2022-10-22T02:24:39;6.13;;;4.35;;
46721;SDS011;32455;43.430;23.136;2022-10-22T02:27:31;7.22;;;4.65;;
46721;SDS011;32455;43.430;23.136;2022-10-22T02:30:22;6.82;;;4.60;;
46721;SDS011;32455;43.430;23.136;2022-10-22T02:36:00;5.88;;;4.57;;
46721;SDS011;32455;43.430;23.136;2022-10-22T02:38:47;8.68;;;4.88;;
46721;SDS011;32455;43.430;23.136;2022-10-22T02:41:35;5.50;;;4.28;;
46721;SDS011;32455;43.430;23.136;2022-10-22T02:44:22;5.60;;;4.78;;
46721;SDS011;32455;43.430;23.136;2022-10-22T02:47:07;6.68;;;4.40;;
46721;SDS011;32455;43.430;23.136;2022-10-22T02:49:53;5.93;;;4.63;;
46721;SDS011;32455;43.430;23.136;2022-10-22T02:52:38;7.35;;;4.80;;
46721;SDS011;32455;43.430;23.136;2022-10-22T02:55:23;8.15;;;5.13;;
46721;SDS011;32455;43.430;23.136;2022-10-22T02:58:09;6.10;;;4.63;;
46721;SDS011;32455;43.430;23.136;2022-10-22T03:00:55;6.65;;;5.05;;
46721;SDS011;32455;43.430;23.136;2022-10-22T03:03:40;6.97;;;5.00;;
46721;SDS011;32455;43.430;23.136;2022-10-22T03:06:25;5.38;;;4.38;;
46721;SDS011;32455;43.430;23.136;2022-10-22T03:09:11;7.93;;;4.80;;
46721;SDS011;32455;43.430;23.136;2022-10-22T03:11:56;9.02;;;5.28;;
46721;SDS011;32455;43.430;23.136;2022-10-22T03:14:41;7.20;;;4.82;;
46721;SDS011;32455;43.430;23.136;2022-10-22T03:17:26;13.65;;;5.53;;
46721;SDS011;32455;43.430;23.136;2022-10-22T03:20:11;6.43;;;4.93;;
46721;SDS011;32455;43.430;23.136;2022-10-22T03:22:59;11.18;;;4.70;;
46721;SDS011;32455;43.430;23.136;2022-10-22T03:25:45;6.35;;;4.80;;
46721;SDS011;32455;43.430;23.136;2022-10-22T03:28:33;9.15;;;4.72;;
46721;SDS011;32455;43.430;23.136;2022-10-22T03:31:20;9.15;;;4.90;;
46721;SDS011;32455;43.430;23.136;2022-10-22T03:34:05;6.07;;;4.68;;
46721;SDS011;32455;43.430;23.136;2022-10-22T03:36:51;5.90;;;4.82;;
46721;SDS011;32455;43.430;23.136;2022-10-22T03:39:37;10.63;;;4.97;;
46721;SDS011;32455;43.430;23.136;2022-10-22T03:42:22;10.10;;;5.40;;
46721;SDS011;32455;43.430;23.136;2022-10-22T03:45:08;6.35;;;4.80;;
46721;SDS011;32455;43.430;23.136;2022-10-22T03:47:55;6.53;;;4.60;;
46721;SDS011;32455;43.430;23.136;2022-10-22T03:50:40;7.70;;;4.72;;
46721;SDS011;32455;43.430;23.136;2022-10-22T03:53:25;8.30;;;5.70;;
46721;SDS011;32455;43.430;23.136;2022-10-22T03:56:11;6.20;;;4.95;;
46721;SDS011;32455;43.430;23.136;2022-10-22T03:58:58;6.72;;;4.60;;
46721;SDS011;32455;43.430;23.136;2022-10-22T04:01:44;6.70;;;5.13;;
46721;SDS011;32455;43.430;23.136;2022-10-22T04:04:30;9.57;;;5.18;;
46721;SDS011;32455;43.430;23.136;2022-10-22T04:07:15;7.50;;;5.50;;
46721;SDS011;32455;43.430;23.136;2022-10-22T04:10:01;6.85;;;5.60;;
46721;SDS011;32455;43.430;23.136;2022-10-22T04:12:47;7.93;;;5.20;;
46721;SDS011;32455;43.430;23.136;2022-10-22T04:15:32;9.23;;;5.75;;
46721;SDS011;32455;43.430;23.136;2022-10-22T04:18:19;8.27;;;5.03;;
46721;SDS011;32455;43.430;23.136;2022-10-22T04:21:10;9.93;;;6.18;;
46721;SDS011;32455;43.430;23.136;2022-10-22T04:23:57;8.50;;;5.25;;
46721;SDS011;32455;43.430;23.136;2022-10-22T04:26:42;7.68;;;5.40;;
46721;SDS011;32455;43.430;23.136;2022-10-22T04:29:28;7.82;;;5.00;;
46721;SDS011;32455;43.430;23.136;2022-10-22T04:32:13;8.35;;;5.35;;
46721;SDS011;32455;43.430;23.136;2022-10-22T04:34:58;8.52;;;5.78;;
46721;SDS011;32455;43.430;23.136;2022-10-22T04:37:44;12.38;;;6.55;;
46721;SDS011;32455;43.430;23.136;2022-10-22T04:40:30;5.97;;;5.15;;
46721;SDS011;32455;43.430;23.136;2022-10-22T04:43:15;8.60;;;5.78;;
46721;SDS011;32455;43.430;23.136;2022-10-22T04:46:00;7.75;;;5.53;;
46721;SDS011;32455;43.430;23.136;2022-10-22T04:48:46;8.82;;;5.53;;
46721;SDS011;32455;43.430;23.136;2022-10-22T04:51:32;6.95;;;5.20;;
46721;SDS011;32455;43.430;23.136;2022-10-22T04:54:18;7.82;;;5.25;;
46721;SDS011;32455;43.430;23.136;2022-10-22T04:57:04;8.40;;;4.90;;
46721;SDS011;32455;43.430;23.136;2022-10-22T04:59:49;6.20;;;4.95;;
46721;SDS011;32455;43.430;23.136;2022-10-22T05:02:34;7.07;;;4.65;;
46721;SDS011;32455;43.430;23.136;2022-10-22T05:05:20;6.25;;;4.75;;
46721;SDS011;32455;43.430;23.136;2022-10-22T05:08:05;6.90;;;5.05;;
46721;SDS011;32455;43.430;23.136;2022-10-22T05:10:50;8.65;;;4.80;;
46721;SDS011;32455;43.430;23.136;2022-10-22T05:13:34;6.00;;;4.45;;
46721;SDS011;32455;43.430;23.136;2022-10-22T05:16:20;6.80;;;5.35;;
46721;SDS011;32455;43.430;23.136;2022-10-22T05:19:07;8.80;;;4.90;;
46721;SDS011;32455;43.430;23.136;2022-10-22T05:21:54;5.70;;;4.68;;
46721;SDS011;32455;43.430;23.136;2022-10-22T05:24:41;5.93;;;5.00;;
46721;SDS011;32455;43.430;23.136;2022-10-22T05:27:27;6.38;;;4.85;;
46721;SDS011;32455;43.430;23.136;2022-10-22T05:30:12;6.90;;;5.05;;
46721;SDS011;32455;43.430;23.136;2022-10-22T05:32:57;9.95;;;4.75;;
46721;SDS011;32455;43.430;23.136;2022-10-22T05:35:43;11.02;;;5.68;;
46721;SDS011;32455;43.430;23.136;2022-10-22T05:38:28;7.50;;;4.78;;
46721;SDS011;32455;43.430;23.136;2022-10-22T05:41:15;6.63;;;5.22;;
46721;SDS011;32455;43.430;23.136;2022-10-22T05:44:03;9.07;;;5.35;;
46721;SDS011;32455;43.430;23.136;2022-10-22T05:46:49;9.13;;;5.03;;
46721;SDS011;32455;43.430;23.136;2022-10-22T05:49:34;8.60;;;4.93;;
46721;SDS011;32455;43.430;23.136;2022-10-22T05:52:20;8.30;;;4.50;;
46721;SDS011;32455;43.430;23.136;2022-10-22T05:55:05;8.25;;;4.93;;
46721;SDS011;32455;43.430;23.136;2022-10-22T05:57:51;5.75;;;3.90;;
46721;SDS011;32455;43.430;23.136;2022-10-22T06:00:36;6.18;;;4.88;;
46721;SDS011;32455;43.430;23.136;2022-10-22T06:03:21;6.40;;;4.00;;
46721;SDS011;32455;43.430;23.136;2022-10-22T06:12:27;6.38;;;4.38;;
46721;SDS011;32455;43.430;23.136;2022-10-22T06:15:14;7.43;;;4.05;;
46721;SDS011;32455;43.430;23.136;2022-10-22T06:18:01;6.03;;;4.47;;
46721;SDS011;32455;43.430;23.136;2022-10-22T06:20:47;9.48;;;4.53;;
46721;SDS011;32455;43.430;23.136;2022-10-22T06:23:33;8.93;;;4.55;;
46721;SDS011;32455;43.430;23.136;2022-10-22T06:26:20;11.25;;;5.00;;
46721;SDS011;32455;43.430;23.136;2022-10-22T06:29:06;6.50;;;4.15;;
46721;SDS011;32455;43.430;23.136;2022-10-22T06:31:52;8.05;;;4.53;;
46721;SDS011;32455;43.430;23.136;2022-10-22T06:34:38;4.95;;;3.90;;
46721;SDS011;32455;43.430;23.136;2022-10-22T06:37:24;8.48;;;5.30;;
46721;SDS011;32455;43.430;23.136;2022-10-22T06:40:09;11.13;;;4.70;;
46721;SDS011;32455;43.430;23.136;2022-10-22T06:42:57;8.80;;;4.40;;
46721;SDS011;32455;43.430;23.136;2022-10-22T06:45:43;5.00;;;4.03;;
46721;SDS011;32455;43.430;23.136;2022-10-22T06:48:29;7.47;;;3.90;;
46721;SDS011;32455;43.430;23.136;2022-10-22T06:51:14;6.15;;;4.38;;
46721;SDS011;32455;43.430;23.136;2022-10-22T06:54:00;6.25;;;4.13;;
46721;SDS011;32455;43.430;23.136;2022-10-22T06:56:45;5.85;;;4.32;;
46721;SDS011;32455;43.430;23.136;2022-10-22T06:59:32;8.35;;;4.53;;
46721;SDS011;32455;43.430;23.136;2022-10-22T07:02:17;6.78;;;4.47;;
46721;SDS011;32455;43.430;23.136;2022-10-22T07:05:02;6.45;;;4.85;;
46721;SDS011;32455;43.430;23.136;2022-10-22T07:07:49;6.47;;;4.20;;
46721;SDS011;32455;43.430;23.136;2022-10-22T07:10:34;7.47;;;5.70;;
46721;SDS011;32455;43.430;23.136;2022-10-22T07:13:19;9.30;;;4.30;;
46721;SDS011;32455;43.430;23.136;2022-10-22T07:16:06;6.20;;;4.85;;
46721;SDS011;32455;43.430;23.136;2022-10-22T07:18:52;6.57;;;4.20;;
46721;SDS011;32455;43.430;23.136;2022-10-22T07:21:38;6.97;;;4.40;;
46721;SDS011;32455;43.430;23.136;2022-10-22T07:24:25;7.15;;;4.85;;
46721;SDS011;32455;43.430;23.136;2022-10-22T07:27:10;8.15;;;5.03;;
46721;SDS011;32455;43.430;23.136;2022-10-22T07:29:56;10.55;;;5.10;;
46721;SDS011;32455;43.430;23.136;2022-10-22T07:32:44;9.75;;;4.70;;
46721;SDS011;32455;43.430;23.136;2022-10-22T07:35:28;6.95;;;4.88;;
46721;SDS011;32455;43.430;23.136;2022-10-22T07:38:14;6.43;;;5.00;;
46721;SDS011;32455;43.430;23.136;2022-10-22T07:40:59;12.15;;;4.85;;
46721;SDS011;32455;43.430;23.136;2022-10-22T07:43:44;8.38;;;4.80;;
46721;SDS011;32455;43.430;23.136;2022-10-22T07:46:30;8.57;;;4.25;;
46721;SDS011;32455;43.430;23.136;2022-10-22T07:49:15;14.23;;;4.93;;
46721;SDS011;32455;43.430;23.136;2022-10-22T07:52:01;5.45;;;4.47;;
46721;SDS011;32455;43.430;23.136;2022-10-22T07:54:46;5.70;;;5.00;;
46721;SDS011;32455;43.430;23.136;2022-10-22T07:57:33;8.15;;;4.93;;
46721;SDS011;32455;43.430;23.136;2022-10-22T08:00:20;7.40;;;4.82;;
46721;SDS011;32455;43.430;23.136;2022-10-22T08:03:07;7.85;;;4.65;;
46721;SDS011;32455;43.430;23.136;2022-10-22T08:05:57;9.45;;;5.28;;
46721;SDS011;32455;43.430;23.136;2022-10-22T08:08:43;9.88;;;5.28;;
46721;SDS011;32455;43.430;23.136;2022-10-22T08:11:30;9.00;;;5.45;;
46721;SDS011;32455;43.430;23.136;2022-10-22T08:14:17;7.45;;;4.78;;
46721;SDS011;32455;43.430;23.136;2022-10-22T08:17:02;8.70;;;4.75;;
46721;SDS011;32455;43.430;23.136;2022-10-22T08:19:48;9.65;;;4.85;;
46721;SDS011;32455;43.430;23.136;2022-10-22T08:22:33;13.30;;;5.28;;
46721;SDS011;32455;43.430;23.136;2022-10-22T08:25:18;8.98;;;4.70;;
46721;SDS011;32455;43.430;23.136;2022-10-22T08:28:04;7.57;;;5.13;;
46721;SDS011;32455;43.430;23.136;2022-10-22T08:30:49;12.57;;;5.95;;
46721;SDS011;32455;43.430;23.136;2022-10-22T08:33:35;5.55;;;4.30;;
46721;SDS011;32455;43.430;23.136;2022-10-22T08:36:22;6.32;;;4.63;;
46721;SDS011;32455;43.430;23.136;2022-10-22T08:39:07;6.35;;;4.70;;
46721;SDS011;32455;43.430;23.136;2022-10-22T08:41:58;12.88;;;4.70;;
46721;SDS011;32455;43.430;23.136;2022-10-22T08:48:09;6.82;;;4.18;;
46721;SDS011;32455;43.430;23.136;2022-10-22T08:51:07;8.43;;;4.45;;
46721;SDS011;32455;43.430;23.136;2022-10-22T08:54:04;7.53;;;4.65;;
46721;SDS011;32455;43.430;23.136;2022-10-22T09:06:10;5.63;;;4.40;;
46721;SDS011;32455;43.430;23.136;2022-10-22T09:08:59;7.18;;;4.47;;
46721;SDS011;32455;43.430;23.136;2022-10-22T09:11:49;7.72;;;4.68;;
46721;SDS011;32455;43.430;23.136;2022-10-22T09:14:36;5.10;;;4.45;;
46721;SDS011;32455;43.430;23.136;2022-10-22T09:24:08;6.53;;;4.28;;
46721;SDS011;32455;43.430;23.136;2022-10-22T09:26:54;8.27;;;4.30;;
46721;SDS011;32455;43.430;23.136;2022-10-22T09:29:41;8.02;;;4.75;;
46721;SDS011;32455;43.430;23.136;2022-10-22T09:32:27;5.78;;;4.78;;
46721;SDS011;32455;43.430;23.136;2022-10-22T09:35:13;5.15;;;4.35;;
46721;SDS011;32455;43.430;23.136;2022-10-22T09:38:02;9.30;;;5.05;;
46721;SDS011;32455;43.430;23.136;2022-10-22T09:40:55;9.50;;;5.10;;
46721;SDS011;32455;43.430;23.136;2022-10-22T09:43:45;9.63;;;4.70;;
46721;SDS011;32455;43.430;23.136;2022-10-22T09:46:31;8.98;;;4.22;;
46721;SDS011;32455;43.430;23.136;2022-10-22T09:49:27;5.70;;;4.53;;
46721;SDS011;32455;43.430;23.136;2022-10-22T09:52:26;6.00;;;4.60;;
46721;SDS011;32455;43.430;23.136;2022-10-22T09:55:17;8.18;;;4.95;;
46721;SDS011;32455;43.430;23.136;2022-10-22T09:58:03;7.75;;;5.00;;
46721;SDS011;32455;43.430;23.136;2022-10-22T10:00:53;8.95;;;4.57;;
46721;SDS011;32455;43.430;23.136;2022-10-22T10:03:41;11.63;;;4.78;;
46721;SDS011;32455;43.430;23.136;2022-10-22T10:06:26;7.75;;;4.97;;
46721;SDS011;32455;43.430;23.136;2022-10-22T10:09:18;6.93;;;4.75;;
46721;SDS011;32455;43.430;23.136;2022-10-22T10:15:16;7.05;;;4.47;;
46721;SDS011;32455;43.430;23.136;2022-10-22T10:18:24;8.30;;;5.13;;
46721;SDS011;32455;43.430;23.136;2022-10-22T10:21:46;6.68;;;4.53;;
46721;SDS011;32455;43.430;23.136;2022-10-22T10:25:02;5.30;;;4.50;;
46721;SDS011;32455;43.430;23.136;2022-10-22T10:34:38;4.72;;;4.20;;
46721;SDS011;32455;43.430;23.136;2022-10-22T10:37:54;8.85;;;4.63;;
46721;SDS011;32455;43.430;23.136;2022-10-22T10:44:25;5.63;;;4.68;;
46721;SDS011;32455;43.430;23.136;2022-10-22T10:50:19;5.28;;;4.35;;
46721;SDS011;32455;43.430;23.136;2022-10-22T10:56:13;7.45;;;4.55;;
46721;SDS011;32455;43.430;23.136;2022-10-22T10:59:26;13.02;;;4.97;;
46721;SDS011;32455;43.430;23.136;2022-10-22T11:02:41;11.93;;;4.47;;
46721;SDS011;32455;43.430;23.136;2022-10-22T11:08:37;6.72;;;4.40;;
46721;SDS011;32455;43.430;23.136;2022-10-22T11:11:41;8.48;;;4.50;;
46721;SDS011;32455;43.430;23.136;2022-10-22T11:17:44;8.07;;;3.88;;
46721;SDS011;32455;43.430;23.136;2022-10-22T11:27:27;7.28;;;4.55;;
46721;SDS011;32455;43.430;23.136;2022-10-22T11:30:22;7.90;;;4.38;;
46721;SDS011;32455;43.430;23.136;2022-10-22T11:33:10;10.27;;;4.68;;
46721;SDS011;32455;43.430;23.136;2022-10-22T11:35:58;7.45;;;5.13;;
46721;SDS011;32455;43.430;23.136;2022-10-22T11:38:47;9.82;;;4.85;;
46721;SDS011;32455;43.430;23.136;2022-10-22T11:41:33;9.38;;;5.53;;
46721;SDS011;32455;43.430;23.136;2022-10-22T11:44:23;5.88;;;4.72;;
46721;SDS011;32455;43.430;23.136;2022-10-22T11:47:19;5.90;;;4.63;;
46721;SDS011;32455;43.430;23.136;2022-10-22T11:50:18;7.18;;;5.18;;
46721;SDS011;32455;43.430;23.136;2022-10-22T11:53:28;5.70;;;5.10;;
46721;SDS011;32455;43.430;23.136;2022-10-22T11:56:56;6.03;;;4.10;;
46721;SDS011;32455;43.430;23.136;2022-10-22T11:59:37;6.35;;;4.50;;
46721;SDS011;32455;43.430;23.136;2022-10-22T12:08:27;7.88;;;6.18;;
46721;SDS011;32455;43.430;23.136;2022-10-22T12:11:14;8.65;;;5.20;;
46721;SDS011;32455;43.430;23.136;2022-10-22T12:14:06;5.55;;;4.72;;
46721;SDS011;32455;43.430;23.136;2022-10-22T12:17:14;6.93;;;4.95;;
46721;SDS011;32455;43.430;23.136;2022-10-22T12:22:51;9.27;;;4.90;;
46721;SDS011;32455;43.430;23.136;2022-10-22T12:25:37;7.32;;;4.32;;
46721;SDS011;32455;43.430;23.136;2022-10-22T12:28:23;9.25;;;5.75;;
46721;SDS011;32455;43.430;23.136;2022-10-22T12:31:14;5.85;;;4.70;;
46721;SDS011;32455;43.430;23.136;2022-10-22T12:34:02;8.38;;;4.70;;
46721;SDS011;32455;43.430;23.136;2022-10-22T12:36:49;10.45;;;5.35;;
46721;SDS011;32455;43.430;23.136;2022-10-22T12:39:36;6.10;;;4.72;;
46721;SDS011;32455;43.430;23.136;2022-10-22T12:42:22;7.60;;;4.85;;
46721;SDS011;32455;43.430;23.136;2022-10-22T12:45:09;8.25;;;4.85;;
46721;SDS011;32455;43.430;23.136;2022-10-22T12:47:55;7.63;;;4.60;;
46721;SDS011;32455;43.430;23.136;2022-10-22T12:50:50;7.03;;;4.82;;
46721;SDS011;32455;43.430;23.136;2022-10-22T12:53:40;6.55;;;4.43;;
46721;SDS011;32455;43.430;23.136;2022-10-22T12:56:30;8.50;;;5.88;;
46721;SDS011;32455;43.430;23.136;2022-10-22T12:59:36;7.03;;;5.15;;
46721;SDS011;32455;43.430;23.136;2022-10-22T13:02:25;6.55;;;4.65;;
46721;SDS011;32455;43.430;23.136;2022-10-22T13:05:20;7.68;;;4.68;;
46721;SDS011;32455;43.430;23.136;2022-10-22T13:08:11;5.68;;;4.38;;
46721;SDS011;32455;43.430;23.136;2022-10-22T13:11:05;5.78;;;4.43;;
46721;SDS011;32455;43.430;23.136;2022-10-22T13:14:00;7.65;;;4.90;;
46721;SDS011;32455;43.430;23.136;2022-10-22T13:19:59;10.18;;;4.82;;
46721;SDS011;32455;43.430;23.136;2022-10-22T13:23:19;8.13;;;4.32;;
46721;SDS011;32455;43.430;23.136;2022-10-22T13:26:14;9.30;;;4.93;;
46721;SDS011;32455;43.430;23.136;2022-10-22T13:29:07;9.18;;;5.07;;
46721;SDS011;32455;43.430;23.136;2022-10-22T13:31:58;8.05;;;4.53;;
46721;SDS011;32455;43.430;23.136;2022-10-22T13:34:45;8.20;;;4.95;;
46721;SDS011;32455;43.430;23.136;2022-10-22T13:37:31;6.55;;;4.07;;
46721;SDS011;32455;43.430;23.136;2022-10-22T13:40:18;7.50;;;4.95;;
46721;SDS011;32455;43.430;23.136;2022-10-22T13:43:03;9.65;;;4.68;;
46721;SDS011;32455;43.430;23.136;2022-10-22T13:45:51;10.38;;;4.85;;
46721;SDS011;32455;43.430;23.136;2022-10-22T13:48:38;6.25;;;4.78;;
46721;SDS011;32455;43.430;23.136;2022-10-22T13:51:28;10.40;;;5.00;;
46721;SDS011;32455;43.430;23.136;2022-10-22T13:54:20;8.75;;;5.03;;
46721;SDS011;32455;43.430;23.136;2022-10-22T13:57:08;6.07;;;5.03;;
46721;SDS011;32455;43.430;23.136;2022-10-22T13:59:54;8.48;;;5.47;;
46721;SDS011;32455;43.430;23.136;2022-10-22T14:02:39;7.55;;;4.53;;
46721;SDS011;32455;43.430;23.136;2022-10-22T14:05:25;10.15;;;5.10;;
46721;SDS011;32455;43.430;23.136;2022-10-22T14:08:11;7.55;;;5.32;;
46721;SDS011;32455;43.430;23.136;2022-10-22T14:10:59;6.88;;;5.10;;
46721;SDS011;32455;43.430;23.136;2022-10-22T14:13:45;5.38;;;4.78;;
46721;SDS011;32455;43.430;23.136;2022-10-22T14:16:31;14.18;;;5.70;;
46721;SDS011;32455;43.430;23.136;2022-10-22T14:19:18;6.80;;;4.68;;
46721;SDS011;32455;43.430;23.136;2022-10-22T14:22:03;8.43;;;5.22;;
46721;SDS011;32455;43.430;23.136;2022-10-22T14:24:48;7.22;;;4.47;;
46721;SDS011;32455;43.430;23.136;2022-10-22T14:27:36;7.57;;;4.95;;
46721;SDS011;32455;43.430;23.136;2022-10-22T14:30:24;10.43;;;5.38;;
46721;SDS011;32455;43.430;23.136;2022-10-22T14:33:14;9.75;;;4.88;;
46721;SDS011;32455;43.430;23.136;2022-10-22T14:36:05;7.07;;;4.70;;
46721;SDS011;32455;43.430;23.136;2022-10-22T14:38:50;6.18;;;4.75;;
46721;SDS011;32455;43.430;23.136;2022-10-22T14:41:36;8.23;;;4.82;;
46721;SDS011;32455;43.430;23.136;2022-10-22T14:44:21;8.48;;;4.70;;
46721;SDS011;32455;43.430;23.136;2022-10-22T14:47:08;7.70;;;4.55;;
46721;SDS011;32455;43.430;23.136;2022-10-22T14:49:53;6.72;;;4.97;;
46721;SDS011;32455;43.430;23.136;2022-10-22T14:52:39;7.03;;;5.18;;
46721;SDS011;32455;43.430;23.136;2022-10-22T14:55:25;11.10;;;5.45;;
46721;SDS011;32455;43.430;23.136;2022-10-22T14:58:11;11.75;;;5.30;;
46721;SDS011;32455;43.430;23.136;2022-10-22T15:00:56;7.57;;;5.07;;
46721;SDS011;32455;43.430;23.136;2022-10-22T15:03:42;6.53;;;5.43;;
46721;SDS011;32455;43.430;23.136;2022-10-22T15:06:27;8.23;;;5.10;;
46721;SDS011;32455;43.430;23.136;2022-10-22T15:09:13;7.63;;;5.13;;
46721;SDS011;32455;43.430;23.136;2022-10-22T15:11:59;8.93;;;5.10;;
46721;SDS011;32455;43.430;23.136;2022-10-22T15:14:44;19.38;;;8.40;;
46721;SDS011;32455;43.430;23.136;2022-10-22T15:17:33;41.08;;;16.90;;
46721;SDS011;32455;43.430;23.136;2022-10-22T15:20:18;12.15;;;7.60;;
46721;SDS011;32455;43.430;23.136;2022-10-22T15:23:04;36.97;;;16.77;;
46721;SDS011;32455;43.430;23.136;2022-10-22T15:25:49;31.23;;;14.68;;
46721;SDS011;32455;43.430;23.136;2022-10-22T15:28:35;27.98;;;12.48;;
46721;SDS011;32455;43.430;23.136;2022-10-22T15:31:41;32.75;;;12.75;;
46721;SDS011;32455;43.430;23.136;2022-10-22T15:34:38;41.55;;;15.25;;
46721;SDS011;32455;43.430;23.136;2022-10-22T15:37:24;34.58;;;16.48;;
46721;SDS011;32455;43.430;23.136;2022-10-22T15:40:10;26.05;;;14.30;;
46721;SDS011;32455;43.430;23.136;2022-10-22T15:42:56;22.33;;;14.60;;
46721;SDS011;32455;43.430;23.136;2022-10-22T15:45:41;20.65;;;11.07;;
46721;SDS011;32455;43.430;23.136;2022-10-22T15:48:27;12.50;;;6.93;;
46721;SDS011;32455;43.430;23.136;2022-10-22T15:51:16;11.13;;;8.35;;
46721;SDS011;32455;43.430;23.136;2022-10-22T15:54:03;14.20;;;8.20;;
46721;SDS011;32455;43.430;23.136;2022-10-22T15:56:48;9.07;;;6.95;;
46721;SDS011;32455;43.430;23.136;2022-10-22T15:59:34;13.85;;;7.55;;
46721;SDS011;32455;43.430;23.136;2022-10-22T16:02:19;15.05;;;8.98;;
46721;SDS011;32455;43.430;23.136;2022-10-22T16:05:05;23.23;;;11.85;;
46721;SDS011;32455;43.430;23.136;2022-10-22T16:07:51;17.63;;;9.68;;
46721;SDS011;32455;43.430;23.136;2022-10-22T16:10:43;24.45;;;13.43;;
46721;SDS011;32455;43.430;23.136;2022-10-22T16:13:29;16.13;;;10.63;;
46721;SDS011;32455;43.430;23.136;2022-10-22T16:16:15;22.70;;;13.00;;
46721;SDS011;32455;43.430;23.136;2022-10-22T16:19:01;30.48;;;17.50;;
46721;SDS011;32455;43.430;23.136;2022-10-22T16:21:51;30.92;;;17.80;;
46721;SDS011;32455;43.430;23.136;2022-10-22T16:24:37;19.70;;;12.30;;
46721;SDS011;32455;43.430;23.136;2022-10-22T16:27:24;30.60;;;17.77;;
46721;SDS011;32455;43.430;23.136;2022-10-22T16:30:10;48.00;;;27.92;;
46721;SDS011;32455;43.430;23.136;2022-10-22T16:32:56;23.00;;;14.63;;
46721;SDS011;32455;43.430;23.136;2022-10-22T16:35:41;9.95;;;7.15;;
46721;SDS011;32455;43.430;23.136;2022-10-22T16:38:27;17.25;;;9.00;;
46721;SDS011;32455;43.430;23.136;2022-10-22T16:41:14;12.52;;;7.80;;
46721;SDS011;32455;43.430;23.136;2022-10-22T16:44:02;17.35;;;10.65;;
46721;SDS011;32455;43.430;23.136;2022-10-22T16:46:50;20.42;;;12.45;;
46721;SDS011;32455;43.430;23.136;2022-10-22T16:49:36;18.60;;;10.73;;
46721;SDS011;32455;43.430;23.136;2022-10-22T16:52:21;24.17;;;14.73;;
46721;SDS011;32455;43.430;23.136;2022-10-22T16:55:06;21.92;;;12.18;;
46721;SDS011;32455;43.430;23.136;2022-10-22T16:57:52;15.25;;;10.45;;
46721;SDS011;32455;43.430;23.136;2022-10-22T17:00:36;19.33;;;10.38;;
46721;SDS011;32455;43.430;23.136;2022-10-22T17:03:22;15.02;;;8.52;;
46721;SDS011;32455;43.430;23.136;2022-10-22T17:06:07;10.07;;;7.80;;
46721;SDS011;32455;43.430;23.136;2022-10-22T17:08:53;13.20;;;7.85;;
46721;SDS011;32455;43.430;23.136;2022-10-22T17:11:39;12.05;;;7.60;;
46721;SDS011;32455;43.430;23.136;2022-10-22T17:14:24;9.52;;;7.55;;
46721;SDS011;32455;43.430;23.136;2022-10-22T17:17:10;10.15;;;7.25;;
46721;SDS011;32455;43.430;23.136;2022-10-22T17:19:55;10.45;;;7.45;;
46721;SDS011;32455;43.430;23.136;2022-10-22T17:22:40;10.98;;;6.45;;
46721;SDS011;32455;43.430;23.136;2022-10-22T17:25:42;8.43;;;5.97;;
46721;SDS011;32455;43.430;23.136;2022-10-22T17:28:28;7.82;;;6.35;;
46721;SDS011;32455;43.430;23.136;2022-10-22T17:31:18;8.18;;;6.00;;
46721;SDS011;32455;43.430;23.136;2022-10-22T17:34:09;6.85;;;5.40;;
46721;SDS011;32455;43.430;23.136;2022-10-22T17:36:58;11.60;;;6.05;;
46721;SDS011;32455;43.430;23.136;2022-10-22T17:39:44;10.35;;;5.38;;
46721;SDS011;32455;43.430;23.136;2022-10-22T17:42:29;9.18;;;6.05;;
46721;SDS011;32455;43.430;23.136;2022-10-22T17:45:15;6.90;;;5.07;;
46721;SDS011;32455;43.430;23.136;2022-10-22T17:48:02;12.30;;;5.70;;
46721;SDS011;32455;43.430;23.136;2022-10-22T17:50:47;9.20;;;5.78;;
46721;SDS011;32455;43.430;23.136;2022-10-22T17:53:32;8.13;;;6.43;;
46721;SDS011;32455;43.430;23.136;2022-10-22T17:56:21;9.82;;;5.72;;
46721;SDS011;32455;43.430;23.136;2022-10-22T17:59:12;11.32;;;6.25;;
46721;SDS011;32455;43.430;23.136;2022-10-22T18:01:59;9.02;;;6.57;;
46721;SDS011;32455;43.430;23.136;2022-10-22T18:04:48;8.30;;;6.00;;
46721;SDS011;32455;43.430;23.136;2022-10-22T18:07:35;17.10;;;6.50;;